Time;durP1;ratioP1;P1;durP2;ratioP2;P2;SDS_P1;SDS_P2;PMS_P1;PMS_P2;Temp;Humidity;BMP_temperature;BMP_pressure;BME280_temperature;BME280_humidity;BME280_pressure;Samples;Min_cycle;Max_cycle;Signal;HPM_P1;HPM_P2
2022/08/31 00:04:48;;;;;;;18.15;8.63;;;;;;;;;;5077025;28;20087;-78
2022/08/31 00:07:14;;;;;;;13.15;8.07;;;;;;;;;;5075986;28;20164;-78
2022/08/31 00:09:41;;;;;;;12.65;8.25;;;;;;;;;;5075237;28;20102;-79
2022/08/31 00:12:07;;;;;;;12.27;8.02;;;;;;;;;;5089295;28;20135;-78
2022/08/31 00:14:35;;;;;;;15.20;8.05;;;;;;;;;;5096453;28;20048;-78
2022/08/31 00:17:02;;;;;;;13.13;8.07;;;;;;;;;;5095594;28;20060;-78
2022/08/31 00:19:30;;;;;;;11.10;7.78;;;;;;;;;;5092297;28;20070;-78
2022/08/31 00:21:59;;;;;;;16.88;7.80;;;;;;;;;;5075393;28;20072;-78
2022/08/31 00:24:25;;;;;;;14.20;8.20;;;;;;;;;;5093694;28;20106;-78
2022/08/31 00:26:52;;;;;;;16.20;8.43;;;;;;;;;;5094084;28;20052;-78
2022/08/31 00:29:18;;;;;;;12.88;8.07;;;;;;;;;;5094818;28;20079;-78
2022/08/31 00:31:45;;;;;;;14.50;8.80;;;;;;;;;;5096573;28;20143;-78
2022/08/31 00:34:11;;;;;;;15.20;8.52;;;;;;;;;;5095121;28;20167;-78
2022/08/31 00:36:38;;;;;;;13.30;7.85;;;;;;;;;;5097999;28;20182;-78
2022/08/31 00:39:06;;;;;;;14.35;8.90;;;;;;;;;;5096930;28;20128;-78
2022/08/31 00:41:37;;;;;;;14.10;7.75;;;;;;;;;;5096718;28;20044;-79
2022/08/31 00:44:05;;;;;;;13.95;8.07;;;;;;;;;;5097635;28;20083;-78
2022/08/31 00:46:33;;;;;;;11.65;7.72;;;;;;;;;;5096834;28;20115;-78
2022/08/31 00:49:08;;;;;;;13.30;8.15;;;;;;;;;;5095359;28;20071;-78
2022/08/31 00:52:01;;;;;;;17.48;8.18;;;;;;;;;;5096846;28;20079;-78
2022/08/31 00:55:00;;;;;;;16.58;8.80;;;;;;;;;;5061746;28;20053;-78
2022/08/31 00:57:29;;;;;;;14.70;8.88;;;;;;;;;;5024173;28;20136;-78
2022/08/31 01:00:01;;;;;;;15.73;8.85;;;;;;;;;;5076918;28;20052;-78
2022/08/31 01:02:27;;;;;;;15.70;8.63;;;;;;;;;;5074717;28;20059;-77
2022/08/31 01:04:55;;;;;;;15.45;9.23;;;;;;;;;;5073269;28;20044;-79
2022/08/31 01:07:22;;;;;;;13.68;8.57;;;;;;;;;;5076057;28;20040;-78
2022/08/31 01:09:48;;;;;;;12.93;8.93;;;;;;;;;;5078187;28;20044;-78
2022/08/31 01:12:21;;;;;;;12.90;8.15;;;;;;;;;;5082399;28;20079;-78
2022/08/31 01:14:48;;;;;;;17.70;10.15;;;;;;;;;;5083209;28;20068;-77
2022/08/31 01:17:16;;;;;;;14.02;8.75;;;;;;;;;;5087302;28;20190;-78
2022/08/31 01:19:42;;;;;;;16.23;8.88;;;;;;;;;;5089380;28;20056;-78
2022/08/31 01:22:15;;;;;;;17.35;9.65;;;;;;;;;;5090656;28;20048;-78
2022/08/31 01:24:43;;;;;;;18.80;9.27;;;;;;;;;;5089183;28;20083;-78
2022/08/31 01:27:12;;;;;;;12.20;8.18;;;;;;;;;;5082272;28;20463;-78
2022/08/31 01:29:39;;;;;;;15.82;9.88;;;;;;;;;;5075713;28;20144;-78
2022/08/31 01:32:05;;;;;;;16.00;10.13;;;;;;;;;;5080472;28;20053;-78
2022/08/31 01:34:32;;;;;;;17.60;10.00;;;;;;;;;;5079423;28;20053;-78
2022/08/31 01:36:59;;;;;;;16.80;9.77;;;;;;;;;;5074623;28;20076;-78
2022/08/31 01:39:25;;;;;;;22.98;11.52;;;;;;;;;;5074792;28;20084;-78
2022/08/31 01:41:52;;;;;;;20.45;10.68;;;;;;;;;;5073288;28;20616;-78
2022/08/31 01:44:20;;;;;;;20.45;10.93;;;;;;;;;;5074411;28;20095;-78
2022/08/31 01:46:48;;;;;;;16.48;10.48;;;;;;;;;;5073205;28;20044;-78
2022/08/31 01:49:15;;;;;;;20.60;11.50;;;;;;;;;;5071322;28;20505;-78
2022/08/31 01:51:41;;;;;;;16.98;10.32;;;;;;;;;;5072094;28;20127;-77
2022/08/31 01:54:08;;;;;;;19.23;10.80;;;;;;;;;;5074590;28;20646;-78
2022/08/31 01:56:40;;;;;;;23.88;10.77;;;;;;;;;;5083450;28;20431;-77
2022/08/31 01:59:07;;;;;;;22.85;10.32;;;;;;;;;;5090695;28;20086;-78
2022/08/31 02:01:37;;;;;;;19.63;11.25;;;;;;;;;;5090458;28;20048;-77
2022/08/31 02:04:05;;;;;;;18.52;10.65;;;;;;;;;;5070992;28;20044;-78
2022/08/31 02:06:32;;;;;;;18.17;10.75;;;;;;;;;;5090890;28;20105;-78
2022/08/31 02:08:59;;;;;;;17.30;10.88;;;;;;;;;;5089666;28;20640;-78
2022/08/31 02:11:25;;;;;;;17.25;10.40;;;;;;;;;;5089921;28;20489;-78
2022/08/31 02:13:51;;;;;;;20.08;10.60;;;;;;;;;;5092130;28;20048;-77
2022/08/31 02:16:18;;;;;;;17.85;10.40;;;;;;;;;;5073173;28;20151;-77
2022/08/31 02:18:44;;;;;;;22.23;11.07;;;;;;;;;;5088905;28;20090;-77
2022/08/31 02:21:12;;;;;;;18.52;11.10;;;;;;;;;;5089268;28;20428;-79
2022/08/31 02:23:39;;;;;;;19.38;10.77;;;;;;;;;;5090393;28;20052;-77
2022/08/31 02:26:05;;;;;;;20.48;11.13;;;;;;;;;;5090858;28;20094;-78
2022/08/31 02:28:32;;;;;;;18.38;11.02;;;;;;;;;;5090359;28;20087;-78
2022/08/31 02:30:59;;;;;;;17.83;10.73;;;;;;;;;;5089970;28;20456;-77
2022/08/31 02:33:25;;;;;;;24.25;11.25;;;;;;;;;;5089713;28;20052;-78
2022/08/31 02:35:52;;;;;;;20.48;10.88;;;;;;;;;;5089960;28;20091;-78
2022/08/31 02:38:19;;;;;;;17.17;10.95;;;;;;;;;;5090443;28;20119;-77
2022/08/31 02:40:47;;;;;;;16.80;10.48;;;;;;;;;;5089195;28;20094;-78
2022/08/31 02:43:15;;;;;;;18.20;10.90;;;;;;;;;;5090865;28;20509;-78
2022/08/31 02:45:50;;;;;;;18.67;10.73;;;;;;;;;;5091179;28;20048;-77
2022/08/31 02:48:19;;;;;;;18.67;10.90;;;;;;;;;;5089923;28;20134;-78
2022/08/31 02:50:50;;;;;;;22.02;10.88;;;;;;;;;;5090157;28;20423;-76
2022/08/31 02:53:17;;;;;;;21.65;11.40;;;;;;;;;;5090248;28;20130;-77
2022/08/31 02:55:44;;;;;;;21.35;11.20;;;;;;;;;;5085423;28;20067;-77
2022/08/31 02:58:12;;;;;;;18.27;11.40;;;;;;;;;;5089209;28;20048;-79
2022/08/31 03:00:42;;;;;;;18.92;10.80;;;;;;;;;;5076000;28;20313;-80
2022/08/31 03:03:08;;;;;;;20.42;11.00;;;;;;;;;;5088202;28;20588;-77
2022/08/31 03:05:34;;;;;;;19.50;10.93;;;;;;;;;;5090065;28;20103;-79
2022/08/31 03:08:01;;;;;;;17.70;10.57;;;;;;;;;;5090564;28;20123;-77
2022/08/31 03:10:27;;;;;;;19.48;11.13;;;;;;;;;;5092746;28;20103;-78
2022/08/31 03:12:54;;;;;;;17.48;9.90;;;;;;;;;;5091718;28;20109;-78
2022/08/31 03:15:21;;;;;;;18.15;9.30;;;;;;;;;;5092404;28;20131;-76
2022/08/31 03:17:48;;;;;;;18.52;10.40;;;;;;;;;;5089927;28;20078;-79
2022/08/31 03:20:15;;;;;;;16.25;9.30;;;;;;;;;;5091774;28;20060;-77
2022/08/31 03:22:42;;;;;;;17.58;9.85;;;;;;;;;;5089927;28;20043;-77
2022/08/31 03:25:11;;;;;;;18.63;10.02;;;;;;;;;;5089861;28;20048;-78
2022/08/31 03:27:37;;;;;;;21.25;11.45;;;;;;;;;;5090896;28;20401;-77
2022/08/31 03:30:05;;;;;;;18.52;10.10;;;;;;;;;;5068022;28;20067;-79
2022/08/31 03:32:31;;;;;;;18.35;10.32;;;;;;;;;;5061572;28;20071;-78
2022/08/31 03:34:59;;;;;;;22.83;10.70;;;;;;;;;;5074804;28;20114;-78
2022/08/31 03:37:25;;;;;;;20.83;11.20;;;;;;;;;;5083463;28;20044;-77
2022/08/31 03:39:52;;;;;;;18.65;10.20;;;;;;;;;;5079016;28;20083;-78
2022/08/31 03:42:18;;;;;;;18.30;10.25;;;;;;;;;;5072190;28;20131;-79
2022/08/31 03:44:45;;;;;;;19.00;11.07;;;;;;;;;;5077176;28;20053;-77
2022/08/31 03:47:12;;;;;;;25.15;11.80;;;;;;;;;;5051889;28;20087;-78
2022/08/31 03:49:39;;;;;;;23.85;11.38;;;;;;;;;;5067583;28;20072;-77
2022/08/31 03:52:06;;;;;;;20.90;12.00;;;;;;;;;;5071964;28;20083;-77
2022/08/31 03:54:33;;;;;;;24.63;11.68;;;;;;;;;;5072263;28;20362;-78
2022/08/31 03:56:59;;;;;;;23.70;11.85;;;;;;;;;;5073918;28;20147;-77
2022/08/31 03:59:26;;;;;;;24.85;13.02;;;;;;;;;;5072331;28;20512;-78
2022/08/31 04:01:52;;;;;;;25.23;12.63;;;;;;;;;;5098194;28;20048;-78
2022/08/31 04:04:19;;;;;;;21.75;11.85;;;;;;;;;;5090690;28;20068;-79
2022/08/31 04:06:45;;;;;;;24.55;13.05;;;;;;;;;;5080788;28;20087;-78
2022/08/31 04:09:12;;;;;;;20.67;11.55;;;;;;;;;;5083481;28;20051;-78
2022/08/31 04:11:39;;;;;;;22.27;12.18;;;;;;;;;;5083051;28;20076;-78
2022/08/31 04:14:11;;;;;;;22.60;12.00;;;;;;;;;;5085772;28;20108;-77
2022/08/31 04:16:42;;;;;;;23.48;12.55;;;;;;;;;;5086631;28;20094;-78
2022/08/31 04:19:10;;;;;;;24.92;12.00;;;;;;;;;;5066334;28;20068;-78
2022/08/31 04:21:37;;;;;;;20.85;11.50;;;;;;;;;;5069567;28;20051;-79
2022/08/31 04:24:04;;;;;;;20.63;12.18;;;;;;;;;;5082658;28;20063;-78
2022/08/31 04:26:32;;;;;;;29.48;12.90;;;;;;;;;;5083322;28;20080;-77
2022/08/31 04:28:59;;;;;;;22.80;12.32;;;;;;;;;;5080723;28;20049;-77
2022/08/31 04:31:26;;;;;;;22.40;12.05;;;;;;;;;;5075678;28;20079;-78
2022/08/31 04:33:55;;;;;;;20.13;12.15;;;;;;;;;;5086290;28;20054;-77
2022/08/31 04:36:22;;;;;;;19.98;10.95;;;;;;;;;;5077228;28;20076;-77
2022/08/31 04:38:50;;;;;;;22.35;11.52;;;;;;;;;;5064596;28;20101;-77
2022/08/31 04:41:18;;;;;;;23.73;12.32;;;;;;;;;;5073709;28;20088;-77
2022/08/31 04:43:46;;;;;;;21.75;11.75;;;;;;;;;;5092185;28;20224;-78
2022/08/31 04:46:13;;;;;;;20.27;11.93;;;;;;;;;;5098250;28;20071;-77
2022/08/31 04:48:40;;;;;;;19.33;11.85;;;;;;;;;;5116469;28;20067;-78
2022/08/31 04:51:14;;;;;;;20.33;11.98;;;;;;;;;;5098268;28;20097;-77
2022/08/31 04:53:41;;;;;;;23.70;11.25;;;;;;;;;;5101779;28;20067;-77
2022/08/31 04:56:13;;;;;;;21.70;11.73;;;;;;;;;;5084334;28;20131;-78
2022/08/31 04:58:40;;;;;;;18.88;11.25;;;;;;;;;;5076879;28;20067;-78
2022/08/31 05:01:08;;;;;;;22.13;11.63;;;;;;;;;;5075959;28;20075;-78
2022/08/31 05:03:34;;;;;;;20.13;11.45;;;;;;;;;;5095657;28;20051;-79
2022/08/31 05:06:01;;;;;;;18.73;11.57;;;;;;;;;;5102998;28;20485;-79
2022/08/31 05:08:27;;;;;;;19.17;10.63;;;;;;;;;;5102917;28;20052;-78
2022/08/31 05:10:56;;;;;;;20.42;10.07;;;;;;;;;;5100650;28;20102;-79
2022/08/31 05:13:23;;;;;;;19.00;10.85;;;;;;;;;;5083976;28;20068;-79
2022/08/31 05:15:49;;;;;;;18.52;11.07;;;;;;;;;;5086072;28;20044;-79
2022/08/31 05:18:20;;;;;;;19.65;10.93;;;;;;;;;;5081357;28;20264;-79
2022/08/31 05:20:47;;;;;;;20.23;11.18;;;;;;;;;;5081483;28;20128;-78
2022/08/31 05:23:13;;;;;;;20.70;10.20;;;;;;;;;;5079611;28;20045;-78
2022/08/31 05:25:39;;;;;;;21.67;10.73;;;;;;;;;;5077776;28;20635;-77
2022/08/31 05:28:06;;;;;;;15.55;10.40;;;;;;;;;;5082246;28;20111;-78
2022/08/31 05:30:33;;;;;;;19.30;10.48;;;;;;;;;;5078111;28;20500;-78
2022/08/31 05:32:59;;;;;;;18.27;10.57;;;;;;;;;;5076924;28;20156;-78
2022/08/31 05:35:26;;;;;;;17.40;10.63;;;;;;;;;;5075972;28;20045;-79
2022/08/31 05:37:53;;;;;;;20.73;11.20;;;;;;;;;;5079036;28;20484;-79
2022/08/31 05:40:19;;;;;;;18.88;10.57;;;;;;;;;;5077468;28;20045;-79
2022/08/31 05:42:45;;;;;;;16.10;10.65;;;;;;;;;;5076138;28;20108;-79
2022/08/31 05:45:12;;;;;;;19.98;10.48;;;;;;;;;;5077155;28;20048;-80
2022/08/31 05:47:38;;;;;;;16.63;10.02;;;;;;;;;;5078679;28;20332;-79
2022/08/31 05:50:05;;;;;;;17.13;9.73;;;;;;;;;;5074410;28;20091;-79
2022/08/31 05:52:33;;;;;;;19.17;9.90;;;;;;;;;;5075163;28;20048;-79
2022/08/31 05:55:00;;;;;;;15.77;9.02;;;;;;;;;;5089977;28;20060;-79
2022/08/31 05:57:26;;;;;;;17.10;10.00;;;;;;;;;;5081742;28;20186;-78
2022/08/31 05:59:53;;;;;;;15.93;9.85;;;;;;;;;;5075550;28;20045;-78
2022/08/31 06:02:19;;;;;;;14.73;9.40;;;;;;;;;;5074131;28;20076;-79
2022/08/31 06:04:45;;;;;;;14.80;8.90;;;;;;;;;;5072364;28;20072;-80
2022/08/31 06:07:12;;;;;;;16.92;9.23;;;;;;;;;;5071846;28;20052;-78
2022/08/31 06:09:39;;;;;;;14.75;8.77;;;;;;;;;;5071395;28;20107;-78
2022/08/31 06:12:07;;;;;;;13.27;8.55;;;;;;;;;;5073055;28;20056;-80
2022/08/31 06:14:33;;;;;;;15.43;8.35;;;;;;;;;;5073485;28;20076;-77
2022/08/31 06:17:00;;;;;;;13.55;8.60;;;;;;;;;;5072932;28;20072;-78
2022/08/31 06:19:26;;;;;;;13.32;8.52;;;;;;;;;;5069873;28;20127;-78
2022/08/31 06:21:53;;;;;;;12.20;8.48;;;;;;;;;;5082804;28;20067;-79
2022/08/31 06:24:19;;;;;;;16.65;8.65;;;;;;;;;;5090253;28;20531;-79
2022/08/31 06:26:55;;;;;;;10.88;7.50;;;;;;;;;;5080914;28;20068;-78
2022/08/31 06:29:25;;;;;;;11.23;8.13;;;;;;;;;;5086659;28;20040;-78
2022/08/31 06:31:52;;;;;;;13.63;8.18;;;;;;;;;;5077572;28;20489;-79
2022/08/31 06:34:19;;;;;;;13.20;7.75;;;;;;;;;;5076186;28;20081;-79
2022/08/31 06:36:48;;;;;;;12.77;7.82;;;;;;;;;;5076984;28;20131;-79
2022/08/31 06:39:15;;;;;;;12.40;7.43;;;;;;;;;;5058884;28;20129;-78
2022/08/31 06:41:41;;;;;;;11.70;7.85;;;;;;;;;;5078522;28;20048;-79
2022/08/31 06:44:09;;;;;;;11.73;8.15;;;;;;;;;;5079254;28;20140;-79
2022/08/31 06:46:37;;;;;;;10.98;7.40;;;;;;;;;;5086356;28;20079;-79
2022/08/31 06:49:04;;;;;;;13.85;7.90;;;;;;;;;;5084254;28;20048;-79
2022/08/31 06:51:36;;;;;;;13.07;7.95;;;;;;;;;;5086175;28;20072;-79
2022/08/31 06:54:03;;;;;;;12.40;8.00;;;;;;;;;;5082939;28;20047;-79
2022/08/31 06:56:50;;;;;;;10.90;7.00;;;;;;;;;;5090174;28;20419;-80
2022/08/31 06:59:16;;;;;;;14.65;7.70;;;;;;;;;;5095019;28;20492;-78
2022/08/31 07:01:42;;;;;;;14.05;7.50;;;;;;;;;;5098406;28;20089;-78
2022/08/31 07:04:09;;;;;;;11.60;7.20;;;;;;;;;;5095568;28;20048;-79
2022/08/31 07:06:37;;;;;;;10.20;7.50;;;;;;;;;;5097393;28;20147;-78
2022/08/31 07:09:05;;;;;;;10.75;7.00;;;;;;;;;;5097106;28;20044;-78
2022/08/31 07:11:39;;;;;;;12.30;6.53;;;;;;;;;;5097921;28;20048;-79
2022/08/31 07:14:13;;;;;;;16.10;6.95;;;;;;;;;;5104681;28;20051;-78
2022/08/31 07:16:40;;;;;;;15.35;6.70;;;;;;;;;;5095631;28;20494;-79
2022/08/31 07:19:06;;;;;;;9.73;6.53;;;;;;;;;;5097275;28;20051;-78
2022/08/31 07:21:39;;;;;;;9.15;6.47;;;;;;;;;;5079243;28;20098;-78
2022/08/31 07:24:05;;;;;;;13.68;6.82;;;;;;;;;;5091398;28;20044;-78
2022/08/31 07:26:34;;;;;;;11.27;6.72;;;;;;;;;;5092878;28;20059;-78
2022/08/31 07:29:05;;;;;;;9.93;6.80;;;;;;;;;;5091979;28;20125;-76
2022/08/31 07:34:29;;;;;;;9.50;6.28;;;;;;;;;;5071643;28;20120;-78
2022/08/31 07:42:34;;;;;;;12.00;6.43;;;;;;;;;;5089050;28;19996;-78
2022/08/31 07:45:04;;;;;;;11.55;6.40;;;;;;;;;;5090161;28;20097;-77
2022/08/31 07:47:34;;;;;;;8.68;6.38;;;;;;;;;;5094060;28;20052;-78
2022/08/31 07:50:01;;;;;;;9.15;6.03;;;;;;;;;;5090876;28;20093;-78
2022/08/31 07:52:28;;;;;;;11.35;6.20;;;;;;;;;;5093558;28;20048;-77
2022/08/31 07:55:05;;;;;;;10.85;6.05;;;;;;;;;;5085858;28;20048;-77
2022/08/31 07:57:42;;;;;;;12.77;5.93;;;;;;;;;;5090784;28;20097;-77
2022/08/31 08:00:13;;;;;;;9.93;6.07;;;;;;;;;;5090739;28;20056;-77
2022/08/31 08:02:40;;;;;;;11.10;6.10;;;;;;;;;;5089298;28;20213;-77
2022/08/31 08:05:08;;;;;;;10.02;5.97;;;;;;;;;;5072398;28;20060;-78
2022/08/31 08:07:37;;;;;;;8.25;5.65;;;;;;;;;;5091042;28;20101;-77
2022/08/31 08:10:05;;;;;;;8.00;5.80;;;;;;;;;;5090043;28;20513;-78
2022/08/31 08:12:35;;;;;;;11.43;6.13;;;;;;;;;;5089351;28;20340;-78
2022/08/31 08:15:03;;;;;;;9.38;6.00;;;;;;;;;;5098912;28;20036;-78
2022/08/31 08:17:30;;;;;;;8.25;5.38;;;;;;;;;;5095772;28;20027;-78
2022/08/31 08:19:56;;;;;;;13.05;6.30;;;;;;;;;;5111916;28;20040;-79
2022/08/31 08:22:24;;;;;;;10.23;6.43;;;;;;;;;;5090151;28;20052;-78
2022/08/31 08:25:11;;;;;;;11.70;6.18;;;;;;;;;;5089628;28;20079;-78
2022/08/31 08:27:38;;;;;;;8.63;5.95;;;;;;;;;;5090134;28;20052;-78
2022/08/31 08:30:05;;;;;;;8.07;5.45;;;;;;;;;;5090958;28;20082;-78
2022/08/31 08:32:32;;;;;;;7.32;5.15;;;;;;;;;;5089115;28;20289;-78
2022/08/31 08:34:59;;;;;;;12.30;5.82;;;;;;;;;;5089696;28;20097;-78
2022/08/31 08:37:26;;;;;;;10.13;5.85;;;;;;;;;;5090061;28;20048;-78
2022/08/31 08:40:31;;;;;;;10.85;6.07;;;;;;;;;;5074864;28;20131;-78
2022/08/31 08:42:58;;;;;;;9.73;5.47;;;;;;;;;;5087657;28;20056;-78
2022/08/31 08:45:25;;;;;;;8.85;5.35;;;;;;;;;;5090784;28;20052;-78
2022/08/31 08:47:55;;;;;;;8.95;5.10;;;;;;;;;;5089141;28;20569;-79
2022/08/31 08:50:22;;;;;;;8.80;5.40;;;;;;;;;;5092145;28;20052;-78
2022/08/31 08:52:49;;;;;;;8.65;5.43;;;;;;;;;;5093287;28;20082;-78
2022/08/31 08:55:20;;;;;;;10.85;4.80;;;;;;;;;;5093346;28;20083;-78
2022/08/31 08:57:48;;;;;;;7.40;5.20;;;;;;;;;;5093907;28;20130;-78
2022/08/31 09:00:16;;;;;;;7.82;4.90;;;;;;;;;;5093171;28;20659;-78
2022/08/31 09:02:49;;;;;;;7.70;5.28;;;;;;;;;;5075067;28;20190;-78
2022/08/31 09:05:29;;;;;;;7.47;4.72;;;;;;;;;;5093542;28;20472;-78
2022/08/31 09:08:16;;;;;;;6.75;4.60;;;;;;;;;;5093377;28;20048;-78
2022/08/31 09:10:46;;;;;;;7.53;4.60;;;;;;;;;;5092914;28;20097;-78
2022/08/31 09:13:19;;;;;;;12.35;4.35;;;;;;;;;;5092987;28;20052;-78
2022/08/31 09:15:51;;;;;;;6.40;3.85;;;;;;;;;;5093187;28;20131;-77
2022/08/31 09:18:29;;;;;;;6.88;3.83;;;;;;;;;;5092307;28;20062;-78
2022/08/31 09:21:21;;;;;;;6.32;3.60;;;;;;;;;;5092423;28;20067;-78
2022/08/31 09:23:53;;;;;;;5.47;3.42;;;;;;;;;;5093099;28;20054;-77
2022/08/31 09:26:23;;;;;;;8.35;4.07;;;;;;;;;;5092517;28;20044;-78
2022/08/31 09:28:51;;;;;;;8.25;3.67;;;;;;;;;;5093326;28;20091;-78
2022/08/31 09:31:34;;;;;;;10.18;4.13;;;;;;;;;;5092006;28;20141;-77
2022/08/31 09:34:02;;;;;;;7.60;4.13;;;;;;;;;;5091462;28;20435;-77
2022/08/31 09:36:37;;;;;;;5.50;3.75;;;;;;;;;;5094168;28;20144;-77
2022/08/31 09:39:18;;;;;;;7.13;3.80;;;;;;;;;;5111934;28;20052;-78
2022/08/31 09:41:45;;;;;;;7.78;3.00;;;;;;;;;;5092870;28;20496;-78
2022/08/31 09:44:34;;;;;;;9.68;3.38;;;;;;;;;;5094133;28;20107;-79
2022/08/31 09:47:03;;;;;;;5.90;3.55;;;;;;;;;;5091747;28;20040;-78
2022/08/31 09:49:38;;;;;;;6.68;3.88;;;;;;;;;;5091256;28;20130;-78
2022/08/31 09:55:12;;;;;;;6.53;3.78;;;;;;;;;;5091764;28;20419;-78
2022/08/31 09:55:24;;;;;;;5.63;3.37;;;;;;;;;;5078381;28;20135;-78
2022/08/31 09:57:53;;;;;;;7.82;3.47;;;;;;;;;;5071466;28;20513;-78
2022/08/31 10:00:40;;;;;;;4.32;3.22;;;;;;;;;;5072878;28;20056;-77
2022/08/31 10:03:17;;;;;;;6.15;3.17;;;;;;;;;;5070216;28;20044;-78
2022/08/31 10:05:45;;;;;;;7.43;3.22;;;;;;;;;;5071429;28;20106;-78
2022/08/31 10:08:26;;;;;;;6.00;3.40;;;;;;;;;;5053664;28;20087;-79
2022/08/31 10:10:57;;;;;;;4.13;2.85;;;;;;;;;;5070429;28;20572;-78
2022/08/31 10:13:37;;;;;;;4.93;3.58;;;;;;;;;;5055671;28;20080;-78
2022/08/31 10:16:13;;;;;;;4.25;2.95;;;;;;;;;;5071286;28;20103;-78
2022/08/31 10:18:49;;;;;;;5.47;2.92;;;;;;;;;;5071977;28;20451;-78
2022/08/31 10:21:25;;;;;;;9.27;2.90;;;;;;;;;;5055239;28;20048;-78
2022/08/31 10:23:55;;;;;;;;;;;;;;;;;;5072154;28;20048;-78
2022/08/31 10:26:35;;;;;;;4.05;2.53;;;;;;;;;;5073036;28;19920;-78
2022/08/31 10:29:07;;;;;;;10.40;2.30;;;;;;;;;;5073049;28;20048;-78
2022/08/31 10:31:43;;;;;;;3.83;1.83;;;;;;;;;;5071688;28;20298;-78
2022/08/31 10:37:13;;;;;;;4.75;1.58;;;;;;;;;;5071970;28;20487;-77
2022/08/31 10:39:43;;;;;;;3.53;1.70;;;;;;;;;;5070396;28;20071;-78
2022/08/31 10:42:14;;;;;;;4.60;1.83;;;;;;;;;;5070812;28;20131;-78
2022/08/31 10:44:55;;;;;;;3.50;1.92;;;;;;;;;;5071256;28;20044;-79
2022/08/31 10:47:23;;;;;;;3.75;1.58;;;;;;;;;;5071385;28;20078;-79
2022/08/31 10:50:02;;;;;;;5.07;1.80;;;;;;;;;;5053736;28;20074;-78
2022/08/31 10:52:31;;;;;;;3.58;1.80;;;;;;;;;;5070558;28;20139;-77
2022/08/31 10:54:59;;;;;;;4.00;1.73;;;;;;;;;;5082387;28;20048;-77
2022/08/31 10:57:39;;;;;;;2.92;1.50;;;;;;;;;;5070919;28;20075;-78
2022/08/31 11:03:06;;;;;;;2.55;1.35;;;;;;;;;;5069783;28;20052;-78
2022/08/31 11:05:36;;;;;;;6.00;1.38;;;;;;;;;;5071540;28;20076;-78
2022/08/31 11:08:21;;;;;;;6.05;1.55;;;;;;;;;;5071212;28;20083;-79
2022/08/31 11:10:50;;;;;;;3.67;1.85;;;;;;;;;;5069556;28;20146;-77
2022/08/31 11:13:35;;;;;;;5.72;1.75;;;;;;;;;;5069419;28;20040;-78
2022/08/31 11:16:12;;;;;;;6.63;1.80;;;;;;;;;;5053875;28;20126;-78
2022/08/31 11:18:46;;;;;;;7.07;1.50;;;;;;;;;;5070649;28;20080;-78
2022/08/31 11:21:34;;;;;;;3.58;1.73;;;;;;;;;;5071849;28;20068;-79
2022/08/31 11:24:06;;;;;;;5.18;1.90;;;;;;;;;;5073201;28;20083;-80
2022/08/31 11:26:53;;;;;;;3.88;1.70;;;;;;;;;;5071419;28;20167;-78
2022/08/31 11:29:46;;;;;;;8.07;1.67;;;;;;;;;;5070861;28;20128;-79
2022/08/31 11:32:16;;;;;;;4.78;1.73;;;;;;;;;;5064925;28;20048;-78
2022/08/31 11:34:52;;;;;;;2.88;1.60;;;;;;;;;;5070099;28;20083;-78
2022/08/31 11:37:37;;;;;;;2.72;1.80;;;;;;;;;;5070386;28;20057;-79
2022/08/31 11:40:08;;;;;;;5.20;1.80;;;;;;;;;;5079326;28;20123;-79
2022/08/31 11:42:41;;;;;;;5.55;1.50;;;;;;;;;;5082191;28;20053;-78
2022/08/31 11:45:25;;;;;;;5.40;1.70;;;;;;;;;;5073499;28;20083;-79
2022/08/31 11:47:53;;;;;;;3.15;1.50;;;;;;;;;;5068557;28;20069;-78
2022/08/31 11:50:20;;;;;;;6.40;1.33;;;;;;;;;;5070022;28;20063;-78
2022/08/31 11:52:52;;;;;;;8.38;1.50;;;;;;;;;;5069500;28;20413;-78
2022/08/31 11:55:21;;;;;;;2.63;1.45;;;;;;;;;;5077370;28;20052;-79
2022/08/31 11:58:06;;;;;;;4.07;1.75;;;;;;;;;;5083353;28;20135;-78
2022/08/31 12:00:44;;;;;;;3.35;1.40;;;;;;;;;;5089145;28;20055;-77
2022/08/31 12:03:49;;;;;;;3.08;1.50;;;;;;;;;;5091186;28;20055;-79
2022/08/31 12:06:22;;;;;;;4.70;1.52;;;;;;;;;;5060742;28;20047;-78
2022/08/31 12:08:51;;;;;;;3.45;1.30;;;;;;;;;;5089798;28;20152;-78
2022/08/31 12:11:27;;;;;;;2.83;1.33;;;;;;;;;;5088409;28;20249;-78
2022/08/31 12:14:24;;;;;;;3.08;1.20;;;;;;;;;;5088323;28;20097;-78
2022/08/31 12:17:08;;;;;;;2.47;1.10;;;;;;;;;;5016958;28;20228;-79
2022/08/31 12:19:56;;;;;;;4.03;1.17;;;;;;;;;;5071078;28;20127;-78
2022/08/31 12:25:29;;;;;;;2.63;1.38;;;;;;;;;;5091297;28;20075;-79
2022/08/31 12:28:01;;;;;;;3.85;1.20;;;;;;;;;;5094450;28;20083;-79
2022/08/31 12:30:28;;;;;;;4.00;1.30;;;;;;;;;;5095954;28;20079;-79
2022/08/31 12:33:06;;;;;;;3.45;1.40;;;;;;;;;;5094013;28;20452;-77
2022/08/31 12:35:35;;;;;;;3.47;1.30;;;;;;;;;;5096560;28;20048;-78
2022/08/31 12:38:04;;;;;;;8.07;1.50;;;;;;;;;;5092988;28;20101;-79
2022/08/31 12:40:32;;;;;;;2.88;1.40;;;;;;;;;;5092696;28;20090;-78
2022/08/31 12:42:59;;;;;;;5.30;1.55;;;;;;;;;;5092967;28;20272;-79
2022/08/31 12:45:34;;;;;;;2.08;1.30;;;;;;;;;;5093560;28;20131;-79
2022/08/31 12:48:00;;;;;;;;;;;;;;;;;;5093373;28;20352;-79
2022/08/31 12:50:36;;;;;;;5.68;1.50;;;;;;;;;;5093101;28;19999;-78
2022/08/31 12:53:25;;;;;;;3.03;1.30;;;;;;;;;;5093646;28;20090;-80
2022/08/31 12:56:24;;;;;;;4.32;1.50;;;;;;;;;;5081768;28;20088;-78
2022/08/31 12:59:05;;;;;;;3.65;1.38;;;;;;;;;;5028534;28;20649;-79
2022/08/31 13:01:38;;;;;;;1.85;1.13;;;;;;;;;;5073085;28;20083;-79
2022/08/31 13:04:05;;;;;;;1.77;1.13;;;;;;;;;;5071447;28;20048;-78
2022/08/31 13:06:32;;;;;;;2.97;1.35;;;;;;;;;;5073087;28;20049;-79
2022/08/31 13:09:00;;;;;;;4.78;1.40;;;;;;;;;;5072451;28;20548;-79
2022/08/31 13:11:38;;;;;;;11.27;1.45;;;;;;;;;;5071838;28;20076;-76
2022/08/31 13:14:06;;;;;;;6.53;1.60;;;;;;;;;;5071612;28;20575;-78
2022/08/31 13:16:33;;;;;;;3.75;1.45;;;;;;;;;;5075457;28;20404;-78
2022/08/31 13:19:02;;;;;;;3.60;1.42;;;;;;;;;;5080243;28;20406;-77
2022/08/31 13:21:28;;;;;;;8.30;1.55;;;;;;;;;;5080271;28;20139;-77
2022/08/31 13:24:05;;;;;;;2.35;1.40;;;;;;;;;;5080578;28;20127;-78
2022/08/31 13:26:34;;;;;;;2.35;1.48;;;;;;;;;;5082490;28;20048;-78
2022/08/31 13:29:03;;;;;;;2.17;1.20;;;;;;;;;;5083303;28;20080;-77
2022/08/31 13:31:32;;;;;;;6.55;1.48;;;;;;;;;;5080266;28;20072;-78
2022/08/31 13:34:01;;;;;;;2.42;1.40;;;;;;;;;;5087765;28;20097;-79
2022/08/31 13:36:30;;;;;;;3.47;1.38;;;;;;;;;;5085191;28;20181;-79
2022/08/31 13:39:11;;;;;;;3.00;1.35;;;;;;;;;;5062247;28;20049;-78
2022/08/31 13:41:53;;;;;;;2.00;1.23;;;;;;;;;;5078873;28;20497;-76
2022/08/31 13:44:32;;;;;;;2.35;1.25;;;;;;;;;;5079765;28;20276;-77
2022/08/31 13:47:02;;;;;;;3.78;1.40;;;;;;;;;;5087982;28;20093;-77
2022/08/31 13:49:34;;;;;;;2.00;1.10;;;;;;;;;;5091154;28;20086;-78
2022/08/31 13:52:03;;;;;;;2.60;1.40;;;;;;;;;;5093583;28;20449;-77
2022/08/31 13:54:31;;;;;;;4.60;1.42;;;;;;;;;;5096878;28;20051;-78
2022/08/31 13:57:21;;;;;;;3.85;1.00;;;;;;;;;;5088444;28;20131;-77
2022/08/31 13:59:48;;;;;;;4.85;1.20;;;;;;;;;;5074123;28;20044;-77
2022/08/31 14:02:14;;;;;;;2.97;1.20;;;;;;;;;;5056918;28;20105;-78
2022/08/31 14:04:47;;;;;;;6.75;1.40;;;;;;;;;;5073102;28;20311;-77
2022/08/31 14:07:22;;;;;;;3.17;1.20;;;;;;;;;;5074271;28;20152;-78
2022/08/31 14:10:00;;;;;;;7.20;1.30;;;;;;;;;;5055583;28;20078;-77
2022/08/31 14:12:34;;;;;;;3.03;1.02;;;;;;;;;;5073783;28;20083;-77
2022/08/31 14:15:20;;;;;;;4.03;1.25;;;;;;;;;;5075789;28;20057;-77
2022/08/31 14:17:51;;;;;;;3.72;1.20;;;;;;;;;;5059715;28;20072;-78
2022/08/31 14:20:40;;;;;;;2.33;1.20;;;;;;;;;;5072574;28;20159;-78
2022/08/31 14:23:24;;;;;;;5.30;1.38;;;;;;;;;;5074315;28;20485;-77
2022/08/31 14:26:06;;;;;;;3.10;1.40;;;;;;;;;;5072904;28;20576;-78
2022/08/31 14:28:40;;;;;;;4.40;1.40;;;;;;;;;;5071605;28;20546;-78
2022/08/31 14:31:21;;;;;;;3.55;1.42;;;;;;;;;;5072791;28;20068;-78
2022/08/31 14:33:54;;;;;;;4.57;1.50;;;;;;;;;;5073004;28;20139;-78
2022/08/31 14:36:22;;;;;;;4.10;1.30;;;;;;;;;;5074057;28;20082;-77
2022/08/31 14:38:53;;;;;;;1.63;1.17;;;;;;;;;;5071254;28;20048;-78
2022/08/31 14:41:26;;;;;;;3.67;1.10;;;;;;;;;;5070240;28;20545;-78
2022/08/31 14:43:54;;;;;;;5.75;1.38;;;;;;;;;;5053516;28;20083;-77
2022/08/31 14:46:27;;;;;;;2.55;1.30;;;;;;;;;;5072104;28;20048;-78
2022/08/31 14:48:55;;;;;;;6.38;1.38;;;;;;;;;;5070950;28;20123;-77
2022/08/31 14:51:22;;;;;;;2.10;1.30;;;;;;;;;;5070565;28;20068;-78
2022/08/31 14:53:55;;;;;;;3.55;1.30;;;;;;;;;;5075096;28;20079;-78
2022/08/31 14:56:25;;;;;;;1.98;1.00;;;;;;;;;;5072047;28;20044;-77
2022/08/31 14:58:53;;;;;;;2.55;1.38;;;;;;;;;;5072038;28;20543;-78
2022/08/31 15:01:20;;;;;;;2.30;1.20;;;;;;;;;;5072772;28;20052;-76
2022/08/31 15:03:47;;;;;;;3.05;1.52;;;;;;;;;;5090034;28;20044;-78
2022/08/31 15:06:18;;;;;;;2.80;1.30;;;;;;;;;;5091671;28;20056;-78
2022/08/31 15:08:45;;;;;;;4.30;1.20;;;;;;;;;;5073963;28;20108;-77
2022/08/31 15:11:11;;;;;;;2.55;1.42;;;;;;;;;;5070114;28;20127;-78
2022/08/31 15:13:39;;;;;;;3.03;1.35;;;;;;;;;;5070530;28;20164;-79
2022/08/31 15:16:06;;;;;;;6.10;1.42;;;;;;;;;;5069950;28;20535;-78